Time;durP1;ratioP1;P1;durP2;ratioP2;P2;SDS_P1;SDS_P2;PMS_P1;PMS_P2;Temp;Humidity;BMP_temperature;BMP_pressure;BME280_temperature;BME280_humidity;BME280_pressure;Samples;Min_cycle;Max_cycle;Signal;HPM_P1;HPM_P2
2022/09/24 00:01:20;;;;;;;2.10;1.77;;;;;;;12.53;nan;100252.06;4927835;28;20408;-64
2022/09/24 00:03:51;;;;;;;3.92;1.70;;;;;;;12.56;nan;100247.41;4929499;28;20039;-64
2022/09/24 00:06:19;;;;;;;2.20;1.65;;;;;;;12.52;nan;100247.78;4924870;28;20095;-63
2022/09/24 00:08:47;;;;;;;3.10;2.00;;;;;;;12.49;nan;100247.31;4924071;29;20047;-64
2022/09/24 00:11:13;;;;;;;2.60;2.00;;;;;;;12.45;nan;100246.81;4923441;28;20039;-64
2022/09/24 00:13:39;;;;;;;2.47;1.90;;;;;;;12.45;nan;100243.34;4924047;28;20151;-63
2022/09/24 00:16:08;;;;;;;2.80;2.00;;;;;;;12.43;nan;100243.50;4926737;28;20060;-64
2022/09/24 00:18:35;;;;;;;2.20;1.75;;;;;;;12.41;nan;100248.13;4927871;28;20043;-64
2022/09/24 00:21:09;;;;;;;2.17;1.70;;;;;;;12.40;nan;100249.16;4927323;28;20424;-64
2022/09/24 00:23:34;;;;;;;2.63;1.60;;;;;;;12.41;nan;100252.63;4924405;28;20047;-64
2022/09/24 00:28:43;;;;;;;2.72;1.65;;;;;;;12.34;nan;100247.16;4926601;28;20352;-64
2022/09/24 00:31:09;;;;;;;2.35;1.88;;;;;;;12.32;nan;100250.00;4926119;28;20544;-64
2022/09/24 00:33:34;;;;;;;2.37;1.77;;;;;;;12.31;nan;100242.22;4927411;28;20043;-63
2022/09/24 00:36:03;;;;;;;3.13;2.20;;;;;;;12.31;nan;100235.06;4926475;28;20331;-63
2022/09/24 00:38:32;;;;;;;2.70;1.88;;;;;;;12.28;nan;100224.00;4927719;28;20090;-64
2022/09/24 00:40:58;;;;;;;4.15;1.70;;;;;;;12.23;nan;100231.63;4928453;28;20620;-64
2022/09/24 00:43:33;;;;;;;3.33;1.88;;;;;;;12.23;nan;100231.63;4927815;28;20404;-64
2022/09/24 00:46:17;;;;;;;3.22;1.95;;;;;;;12.20;nan;100232.78;4928166;28;20023;-64
2022/09/24 00:48:46;;;;;;;3.90;2.25;;;;;;;12.17;nan;100237.59;4930001;28;20085;-64
2022/09/24 00:51:16;;;;;;;2.85;2.10;;;;;;;12.15;nan;100226.34;4928705;28;20046;-64
2022/09/24 00:53:44;;;;;;;2.55;2.10;;;;;;;12.11;nan;100221.38;4923691;28;20633;-64
2022/09/24 00:56:16;;;;;;;2.88;1.90;;;;;;;12.10;nan;100222.38;4921482;28;20036;-64
2022/09/24 00:58:46;;;;;;;2.60;2.10;;;;;;;12.08;nan;100216.44;4929804;28;20051;-64
2022/09/24 01:01:11;;;;;;;2.60;2.30;;;;;;;12.04;nan;100212.44;4928449;28;20032;-63
2022/09/24 01:03:40;;;;;;;4.10;2.33;;;;;;;11.99;nan;100203.34;4931407;28;20128;-64
2022/09/24 01:06:07;;;;;;;2.78;1.90;;;;;;;11.93;nan;100191.59;4929240;28;20176;-64
2022/09/24 01:08:32;;;;;;;2.70;1.88;;;;;;;11.85;nan;100191.59;4931425;28;20046;-64
2022/09/24 01:11:27;;;;;;;2.55;1.70;;;;;;;11.75;nan;100189.13;4931610;29;20040;-64
2022/09/24 01:14:04;;;;;;;2.33;1.70;;;;;;;11.65;nan;100186.63;4926646;28;20043;-64
2022/09/24 01:16:43;;;;;;;2.45;1.90;;;;;;;11.58;nan;100185.66;4929142;28;20040;-64
2022/09/24 01:19:49;;;;;;;3.20;2.15;;;;;;;11.56;nan;100182.38;4930452;28;20608;-64
2022/09/24 01:22:46;;;;;;;3.10;2.10;;;;;;;11.51;nan;100184.66;4871524;29;20048;-64
2022/09/24 01:25:36;;;;;;;3.20;2.20;;;;;;;11.43;nan;100188.13;4931565;28;20047;-64
2022/09/24 01:28:31;;;;;;;4.00;2.50;;;;;;;11.35;nan;100187.34;4926729;28;20155;-63
2022/09/24 01:31:02;;;;;;;3.75;2.47;;;;;;;11.26;nan;100179.38;4930806;29;20036;-63
2022/09/24 01:33:30;;;;;;;3.17;2.30;;;;;;;11.17;nan;100174.25;4925847;28;20497;-63
2022/09/24 01:36:00;;;;;;;3.13;2.05;;;;;;;11.09;nan;100177.72;4929019;28;20036;-63
2022/09/24 01:38:29;;;;;;;4.70;2.55;;;;;;;11.00;nan;100182.16;4930211;28;20055;-63
2022/09/24 01:40:59;;;;;;;3.40;2.60;;;;;;;10.92;nan;100186.63;4930263;28;20324;-64
2022/09/24 01:43:26;;;;;;;4.90;3.22;;;;;;;10.82;nan;100171.72;4930642;28;20050;-63
2022/09/24 01:45:55;;;;;;;3.78;2.97;;;;;;;10.75;nan;100177.78;4927565;28;20397;-63
2022/09/24 01:48:20;;;;;;;3.80;2.80;;;;;;;10.69;nan;100174.00;4929135;28;20042;-64
2022/09/24 01:50:57;;;;;;;3.92;2.63;;;;;;;10.63;nan;100169.34;4926123;28;20471;-63
2022/09/24 01:53:28;;;;;;;3.70;2.80;;;;;;;10.57;nan;100170.81;4931623;28;20039;-63
2022/09/24 01:56:01;;;;;;;3.20;2.22;;;;;;;10.51;nan;100175.91;4929617;28;20500;-63
2022/09/24 01:58:32;;;;;;;2.80;2.20;;;;;;;10.48;nan;100176.22;4930050;28;20174;-63
2022/09/24 02:01:05;;;;;;;2.65;2.00;;;;;;;10.41;nan;100168.94;4927234;28;20032;-64
2022/09/24 02:03:35;;;;;;;3.60;2.10;;;;;;;10.41;nan;100165.47;4925614;28;20047;-64
2022/09/24 02:06:09;;;;;;;2.88;2.50;;;;;;;10.45;nan;100156.22;4932906;29;20039;-64
2022/09/24 02:08:46;;;;;;;4.15;2.90;;;;;;;10.53;nan;100144.84;4929552;28;20175;-64
2022/09/24 02:11:16;;;;;;;4.78;3.03;;;;;;;10.63;nan;100143.75;4927248;28;20586;-63
2022/09/24 02:13:50;;;;;;;5.75;2.95;;;;;;;10.68;nan;100145.06;4928442;28;20055;-63
2022/09/24 02:16:20;;;;;;;4.38;2.90;;;;;;;10.75;nan;100149.56;4931526;28;20124;-64
2022/09/24 02:18:50;;;;;;;3.72;2.80;;;;;;;10.78;nan;100141.28;4925052;29;20164;-64
2022/09/24 02:21:17;;;;;;;3.10;2.80;;;;;;;10.79;nan;100142.09;4928766;28;20036;-64
2022/09/24 02:24:06;;;;;;;2.90;2.50;;;;;;;10.77;nan;100150.22;4928482;29;20123;-64
2022/09/24 02:26:32;;;;;;;2.90;2.40;;;;;;;10.82;nan;100147.06;4927876;28;20768;-64
2022/09/24 02:28:58;;;;;;;3.20;2.20;;;;;;;10.71;nan;100156.16;4923360;29;20159;-64
2022/09/24 02:31:29;;;;;;;2.78;2.17;;;;;;;10.59;nan;100157.44;4929392;28;20042;-64
2022/09/24 02:36:40;;;;;;;2.90;2.05;;;;;;;10.36;nan;100152.72;4929411;28;20065;-64
2022/09/24 02:39:05;;;;;;;2.78;2.10;;;;;;;10.27;nan;100148.34;4928707;28;20417;-64
2022/09/24 02:41:32;;;;;;;3.20;1.90;;;;;;;10.19;nan;100149.16;4929369;29;20044;-64
2022/09/24 02:43:57;;;;;;;3.38;2.05;;;;;;;10.13;nan;100146.31;4931267;28;20310;-64
2022/09/24 02:46:23;;;;;;;2.60;2.05;;;;;;;10.08;nan;100145.97;4931681;28;20039;-64
2022/09/24 02:48:48;;;;;;;3.13;2.53;;;;;;;10.02;nan;100142.16;4931203;28;20055;-64
2022/09/24 02:51:14;;;;;;;2.65;1.80;;;;;;;10.00;nan;100136.19;4920985;29;20102;-64
2022/09/24 02:53:39;;;;;;;2.90;2.00;;;;;;;9.94;nan;100132.38;4928025;28;20046;-63
2022/09/24 02:56:05;;;;;;;3.20;2.40;;;;;;;9.90;nan;100140.78;4928181;29;20031;-64
2022/09/24 02:58:30;;;;;;;2.85;2.17;;;;;;;9.83;nan;100140.56;4927277;29;20048;-64
2022/09/24 03:00:56;;;;;;;2.90;2.00;;;;;;;9.82;nan;100144.19;4923124;28;20042;-64
2022/09/24 03:03:22;;;;;;;2.45;1.73;;;;;;;9.80;nan;100154.09;4924472;29;20075;-64
2022/09/24 03:05:51;;;;;;;3.80;2.05;;;;;;;9.78;nan;100153.41;4924815;28;20161;-63
2022/09/24 03:08:20;;;;;;;2.90;2.00;;;;;;;9.75;nan;100154.56;4926786;28;20066;-64
2022/09/24 03:10:45;;;;;;;2.80;2.00;;;;;;;9.74;nan;100144.13;4926848;29;20381;-64
2022/09/24 03:13:11;;;;;;;3.65;2.10;;;;;;;9.73;nan;100140.69;4922867;28;20044;-63
2022/09/24 03:15:37;;;;;;;2.90;2.20;;;;;;;9.76;nan;100143.00;4927164;28;20114;-64
2022/09/24 03:18:02;;;;;;;3.05;2.10;;;;;;;9.76;nan;100152.72;4923663;28;20047;-63
2022/09/24 03:20:28;;;;;;;3.45;1.92;;;;;;;9.76;nan;100147.44;4926963;29;20521;-64
2022/09/24 03:22:53;;;;;;;2.53;1.70;;;;;;;9.73;nan;100153.06;4923972;29;20405;-64
2022/09/24 03:25:19;;;;;;;3.22;2.08;;;;;;;9.69;nan;100143.78;4926583;29;20040;-64
2022/09/24 03:27:45;;;;;;;2.95;2.20;;;;;;;9.63;nan;100142.59;4926600;28;20591;-64
2022/09/24 03:32:54;;;;;;;3.65;2.20;;;;;;;9.53;nan;100139.22;4924909;28;20099;-64
2022/09/24 03:35:20;;;;;;;2.80;2.13;;;;;;;9.52;nan;100132.28;4926256;29;20413;-64
2022/09/24 03:37:45;;;;;;;3.88;2.40;;;;;;;9.56;nan;100128.38;4926649;28;20047;-64
2022/09/24 03:40:11;;;;;;;4.03;3.05;;;;;;;9.69;nan;100120.03;4925947;29;20039;-64
2022/09/24 03:42:36;;;;;;;3.53;2.60;;;;;;;9.76;nan;100115.78;4927829;29;20055;-63
2022/09/24 03:45:02;;;;;;;9.18;3.20;;;;;;;9.84;nan;100112.34;4923743;29;20043;-64
2022/09/24 03:47:29;;;;;;;5.53;3.38;;;;;;;9.93;nan;100109.56;4922219;28;20448;-64
2022/09/24 03:49:55;;;;;;;4.85;3.28;;;;;;;9.97;nan;100107.47;4927598;28;20055;-63
2022/09/24 03:52:20;;;;;;;5.53;3.22;;;;;;;10.04;nan;100102.38;4928048;28;20075;-64
2022/09/24 03:54:45;;;;;;;4.13;3.20;;;;;;;10.07;nan;100102.06;4924219;29;20492;-64
2022/09/24 03:57:13;;;;;;;4.10;3.10;;;;;;;10.09;nan;100098.25;4927476;29;20400;-64
2022/09/24 03:59:41;;;;;;;4.03;2.78;;;;;;;10.11;nan;100095.47;4926457;28;20307;-64
2022/09/24 04:02:08;;;;;;;3.28;2.63;;;;;;;10.11;nan;100100.75;4926032;28;20032;-65
2022/09/24 04:04:33;;;;;;;3.35;2.70;;;;;;;10.08;nan;100095.78;4924767;28;20507;-64
2022/09/24 04:06:59;;;;;;;4.55;3.35;;;;;;;10.08;nan;100101.06;4923927;29;20043;-64
2022/09/24 04:09:24;;;;;;;3.75;3.10;;;;;;;10.10;nan;100091.16;4925179;28;20051;-64
2022/09/24 04:11:53;;;;;;;6.70;3.20;;;;;;;10.09;nan;100100.91;4924014;29;20059;-64
2022/09/24 04:14:19;;;;;;;3.78;3.00;;;;;;;10.10;nan;100104.38;4925457;28;20178;-64
2022/09/24 04:16:44;;;;;;;3.47;2.60;;;;;;;10.06;nan;100109.16;4928193;29;20134;-64
2022/09/24 04:19:11;;;;;;;3.63;2.67;;;;;;;10.02;nan;100122.84;4927058;29;20040;-64
2022/09/24 04:21:36;;;;;;;3.20;2.67;;;;;;;9.94;nan;100113.06;4924279;29;20126;-63
2022/09/24 04:24:03;;;;;;;2.97;2.38;;;;;;;9.86;nan;100108.56;4927081;28;20046;-64
2022/09/24 04:26:28;;;;;;;2.78;1.85;;;;;;;9.79;nan;100104.88;4925446;28;20333;-64
2022/09/24 04:28:53;;;;;;;3.00;2.30;;;;;;;9.76;nan;100103.38;4926109;28;20036;-64
2022/09/24 04:31:19;;;;;;;2.88;2.45;;;;;;;9.78;nan;100100.59;4926245;29;20079;-63
2022/09/24 04:33:44;;;;;;;3.90;2.63;;;;;;;9.80;nan;100103.91;4927056;29;20032;-63
2022/09/24 04:36:09;;;;;;;4.27;2.50;;;;;;;9.79;nan;100094.31;4926509;28;20131;-64
2022/09/24 04:38:34;;;;;;;5.60;2.88;;;;;;;9.82;nan;100093.19;4923275;29;20292;-64
2022/09/24 04:41:07;;;;;;;3.22;2.67;;;;;;;9.81;nan;100091.53;4931649;28;20393;-64
2022/09/24 04:43:32;;;;;;;4.43;2.95;;;;;;;9.77;nan;100083.94;4926110;28;20054;-64
2022/09/24 04:45:58;;;;;;;5.50;2.80;;;;;;;9.79;nan;100081.13;4928638;28;20039;-64
2022/09/24 04:48:24;;;;;;;4.35;3.28;;;;;;;9.85;nan;100091.06;4926648;28;20040;-64
2022/09/24 04:50:49;;;;;;;4.68;3.40;;;;;;;9.89;nan;100097.69;4929024;28;20091;-64
2022/09/24 04:53:14;;;;;;;3.92;2.83;;;;;;;9.90;nan;100103.81;4928402;28;20074;-64
2022/09/24 04:55:40;;;;;;;4.13;3.08;;;;;;;9.91;nan;100108.09;4928434;28;20517;-64
2022/09/24 04:58:06;;;;;;;3.92;2.67;;;;;;;9.86;nan;100105.91;4928023;28;20106;-64
2022/09/24 05:00:32;;;;;;;4.20;2.50;;;;;;;9.82;nan;100107.22;4923949;28;20051;-64
2022/09/24 05:02:59;;;;;;;3.15;2.28;;;;;;;9.77;nan;100104.22;4927001;28;20559;-65
2022/09/24 05:05:25;;;;;;;3.17;1.92;;;;;;;9.71;nan;100102.22;4922684;29;20126;-66
2022/09/24 05:07:51;;;;;;;2.10;1.80;;;;;;;9.65;nan;100101.00;4927851;29;20163;-67
2022/09/24 05:10:17;;;;;;;3.00;1.85;;;;;;;9.60;nan;100092.72;4922577;29;20044;-67
2022/09/24 05:12:42;;;;;;;3.22;1.90;;;;;;;9.64;nan;100096.72;4922931;28;20086;-66
2022/09/24 05:15:07;;;;;;;2.42;1.90;;;;;;;9.65;nan;100089.63;4922595;29;20078;-67
2022/09/24 05:17:37;;;;;;;3.28;1.98;;;;;;;9.66;nan;100092.13;4925510;29;20536;-66
2022/09/24 05:20:03;;;;;;;2.40;1.90;;;;;;;9.69;nan;100088.34;4926358;28;20079;-67
2022/09/24 05:22:30;;;;;;;2.55;1.55;;;;;;;9.69;nan;100091.78;4923305;29;20387;-66
2022/09/24 05:24:55;;;;;;;2.50;1.90;;;;;;;9.70;nan;100108.47;4926305;29;20063;-67
2022/09/24 05:27:22;;;;;;;2.40;1.70;;;;;;;9.70;nan;100104.03;4922263;29;20078;-67
2022/09/24 05:29:47;;;;;;;2.80;1.80;;;;;;;9.72;nan;100103.84;4927062;29;20560;-67
2022/09/24 05:32:16;;;;;;;2.63;1.80;;;;;;;9.75;nan;100103.56;4921950;28;20036;-67
2022/09/24 05:34:43;;;;;;;3.47;2.05;;;;;;;9.79;nan;100108.34;4928191;28;20087;-67
2022/09/24 05:37:09;;;;;;;2.20;1.90;;;;;;;9.85;nan;100111.38;4924239;29;20044;-66
2022/09/24 05:39:34;;;;;;;2.53;1.73;;;;;;;9.92;nan;100109.75;4926329;29;20040;-66
2022/09/24 05:42:03;;;;;;;3.03;2.55;;;;;;;10.00;nan;100107.97;4927732;28;20119;-66
2022/09/24 05:44:28;;;;;;;3.40;2.30;;;;;;;10.10;nan;100115.75;4923137;28;20039;-66
2022/09/24 05:46:54;;;;;;;3.67;2.20;;;;;;;10.19;nan;100122.72;4924738;28;20042;-67
2022/09/24 05:49:19;;;;;;;3.10;2.30;;;;;;;10.29;nan;100124.47;4927513;29;20480;-67
2022/09/24 05:51:46;;;;;;;3.28;2.15;;;;;;;10.37;nan;100127.16;4930696;28;20055;-66
2022/09/24 05:54:12;;;;;;;3.33;2.63;;;;;;;10.43;nan;100121.19;4925585;29;20036;-68
2022/09/24 05:56:37;;;;;;;3.80;2.67;;;;;;;10.51;nan;100117.75;4930624;28;20456;-65
2022/09/24 05:59:03;;;;;;;2.75;2.15;;;;;;;10.60;nan;100120.25;4924297;29;20035;-66
2022/09/24 06:01:31;;;;;;;3.25;1.95;;;;;;;10.70;nan;100128.06;4925826;29;20038;-66
2022/09/24 06:03:57;;;;;;;2.85;1.70;;;;;;;10.79;nan;100136.81;4926055;29;20043;-66
2022/09/24 06:06:24;;;;;;;2.45;1.88;;;;;;;10.91;nan;100142.63;4927655;29;20046;-67
2022/09/24 06:08:49;;;;;;;3.13;1.63;;;;;;;11.03;nan;100136.84;4929299;29;20044;-66
2022/09/24 06:11:14;;;;;;;3.30;2.42;;;;;;;11.14;nan;100142.81;4929670;29;20036;-67
2022/09/24 06:13:40;;;;;;;3.53;2.67;;;;;;;11.25;nan;100145.16;4932816;28;20040;-66
2022/09/24 06:16:10;;;;;;;3.08;2.63;;;;;;;11.41;nan;100134.53;4933163;28;20036;-67
2022/09/24 06:18:38;;;;;;;4.95;3.03;;;;;;;11.54;nan;100147.28;4933278;28;20048;-66
2022/09/24 06:21:09;;;;;;;4.32;3.28;;;;;;;11.70;nan;100143.75;4933217;28;20175;-66
2022/09/24 06:23:35;;;;;;;3.97;3.22;;;;;;;11.87;nan;100144.59;4934349;29;20496;-67
2022/09/24 06:26:00;;;;;;;3.33;2.88;;;;;;;12.17;nan;100139.53;4934962;28;20040;-66
2022/09/24 06:28:26;;;;;;;3.95;3.20;;;;;;;12.37;nan;100131.97;4931047;29;20043;-67
2022/09/24 06:30:52;;;;;;;4.05;3.30;;;;;;;12.41;nan;100134.09;4931334;29;20038;-67
2022/09/24 06:33:19;;;;;;;4.97;3.70;;;;;;;12.42;nan;100134.94;4933000;29;20532;-67
2022/09/24 06:35:44;;;;;;;4.25;2.92;;;;;;;12.48;nan;100148.31;4933294;29;20059;-65
2022/09/24 06:38:12;;;;;;;3.65;2.58;;;;;;;12.60;nan;100143.47;4931270;28;20114;-67
2022/09/24 06:40:38;;;;;;;2.92;2.38;;;;;;;12.66;nan;100147.25;4933474;29;20050;-67
2022/09/24 06:43:05;;;;;;;3.33;2.40;;;;;;;12.78;nan;100153.00;4932971;28;20066;-67
2022/09/24 06:45:30;;;;;;;3.53;2.38;;;;;;;12.87;nan;100150.13;4936010;28;20062;-66
2022/09/24 06:47:57;;;;;;;3.70;2.60;;;;;;;13.01;nan;100155.66;4934992;28;20571;-64
2022/09/24 06:50:25;;;;;;;3.25;2.45;;;;;;;13.16;nan;100156.53;4932468;29;20062;-68
2022/09/24 06:52:50;;;;;;;4.85;2.60;;;;;;;13.31;nan;100160.09;4931087;29;20476;-67
2022/09/24 06:55:17;;;;;;;4.43;3.42;;;;;;;13.40;nan;100155.56;4932950;28;20127;-67
2022/09/24 06:57:43;;;;;;;4.10;3.35;;;;;;;13.57;nan;100161.53;4936949;28;20039;-66
2022/09/24 07:00:09;;;;;;;4.07;3.20;;;;;;;13.77;nan;100164.50;4929924;28;20060;-66
2022/09/24 07:02:35;;;;;;;6.82;3.70;;;;;;;13.81;nan;100155.97;4924501;29;20067;-67
2022/09/24 07:05:00;;;;;;;5.15;3.40;;;;;;;14.00;nan;100156.47;4931818;28;20254;-67
2022/09/24 07:07:28;;;;;;;5.70;3.55;;;;;;;14.22;nan;100160.03;4931583;29;20515;-66
2022/09/24 07:09:54;;;;;;;4.55;3.28;;;;;;;14.40;nan;100163.13;4930243;28;20048;-67
2022/09/24 07:12:20;;;;;;;6.15;3.33;;;;;;;14.63;nan;100162.19;4929306;28;20035;-66
2022/09/24 07:14:45;;;;;;;4.82;2.88;;;;;;;14.70;nan;100164.94;4927966;29;20091;-67
2022/09/24 07:17:10;;;;;;;4.15;2.83;;;;;;;14.67;nan;100174.13;4931729;29;20131;-67
2022/09/24 07:19:37;;;;;;;5.20;3.00;;;;;;;14.53;nan;100172.28;4928452;29;20086;-67
2022/09/24 07:22:02;;;;;;;5.47;3.80;;;;;;;14.41;nan;100182.56;4927341;28;20047;-67
2022/09/24 07:24:28;;;;;;;3.97;2.97;;;;;;;14.27;nan;100175.44;4924891;28;20374;-66
2022/09/24 07:26:53;;;;;;;3.88;3.13;;;;;;;14.21;nan;100169.03;4927438;29;20057;-66
2022/09/24 07:29:19;;;;;;;6.93;4.00;;;;;;;14.16;nan;100166.91;4930642;28;20120;-66
2022/09/24 07:31:44;;;;;;;4.63;3.10;;;;;;;14.32;nan;100168.53;4920753;28;20050;-66
2022/09/24 07:34:09;;;;;;;4.95;3.30;;;;;;;14.53;nan;100178.41;4919949;28;20044;-67
2022/09/24 07:36:35;;;;;;;4.13;3.33;;;;;;;14.75;nan;100175.84;4929893;28;20039;-68
2022/09/24 07:39:00;;;;;;;4.50;3.40;;;;;;;14.91;nan;100191.59;4928881;28;20044;-67
2022/09/24 07:41:25;;;;;;;4.25;3.20;;;;;;;15.10;nan;100178.66;4926218;29;20497;-65
2022/09/24 07:43:51;;;;;;;5.57;3.50;;;;;;;15.12;nan;100181.97;4925704;28;20047;-65
2022/09/24 07:46:16;;;;;;;4.95;3.53;;;;;;;15.10;nan;100176.00;4926502;28;20046;-64
2022/09/24 07:48:42;;;;;;;5.45;3.13;;;;;;;15.09;nan;100180.50;4930295;28;20043;-65
2022/09/24 07:51:10;;;;;;;3.90;3.22;;;;;;;15.04;nan;100183.75;4925554;28;20043;-64
2022/09/24 07:53:37;;;;;;;5.55;3.60;;;;;;;15.15;nan;100186.91;4929657;29;20047;-67
2022/09/24 07:56:03;;;;;;;3.78;2.75;;;;;;;15.51;nan;100184.97;4920321;29;20031;-66
2022/09/24 07:58:29;;;;;;;3.85;3.10;;;;;;;16.27;nan;100176.28;4929752;28;20052;-65
2022/09/24 08:00:59;;;;;;;6.70;3.70;;;;;;;16.87;nan;100176.53;4930562;29;20565;-64
2022/09/24 08:03:24;;;;;;;;;;;;;;;17.65;nan;100184.03;4931462;28;20547;-65
2022/09/24 08:05:50;;;;;;;;;;;;;;;18.27;nan;100184.56;4931501;29;19962;-65
2022/09/24 08:08:15;;;;;;;4.90;3.33;;;;;;;18.72;nan;100186.47;4927976;29;20002;-66
2022/09/24 08:10:41;;;;;;;4.32;3.30;;;;;;;19.12;nan;100197.00;4931266;28;20070;-65
2022/09/24 08:13:07;;;;;;;6.68;4.18;;;;;;;19.47;nan;100189.31;4930870;28;20585;-65
2022/09/24 08:15:32;;;;;;;5.50;3.05;;;;;;;19.51;nan;100182.47;4924018;29;20114;-65
2022/09/24 08:18:04;;;;;;;4.97;3.40;;;;;;;19.51;nan;100187.84;4934977;28;20052;-66
2022/09/24 08:20:31;;;;;;;4.35;2.85;;;;;;;19.71;nan;100177.81;4930559;29;20054;-65
2022/09/24 08:23:01;;;;;;;6.20;3.50;;;;;;;20.18;nan;100171.94;4923203;29;20457;-66
2022/09/24 08:25:26;;;;;;;5.10;3.65;;;;;;;20.56;nan;100163.66;4930731;28;20048;-65
2022/09/24 08:27:51;;;;;;;5.78;4.15;;;;;;;20.38;nan;100166.38;4925045;29;20543;-66
2022/09/24 08:30:17;;;;;;;8.77;4.45;;;;;;;20.08;nan;100167.09;4926188;29;20091;-65
2022/09/24 08:32:47;;;;;;;4.53;3.63;;;;;;;20.07;nan;100168.16;4932624;29;20460;-66
2022/09/24 08:35:14;;;;;;;5.93;3.78;;;;;;;20.33;nan;100175.09;4925281;28;20377;-65
2022/09/24 08:37:39;;;;;;;5.30;3.60;;;;;;;20.46;nan;100173.28;4928234;28;20054;-65
2022/09/24 08:40:05;;;;;;;4.00;2.80;;;;;;;20.92;nan;100183.44;4927877;28;20497;-64
2022/09/24 08:42:31;;;;;;;3.45;2.80;;;;;;;21.12;nan;100188.53;4930254;29;20057;-64
2022/09/24 08:47:47;;;;;;;5.28;3.67;;;;;;;21.35;nan;100184.25;4928743;29;20047;-64
2022/09/24 08:50:12;;;;;;;5.05;3.60;;;;;;;21.45;nan;100181.03;4927238;28;20042;-64
2022/09/24 08:52:41;;;;;;;4.85;3.67;;;;;;;21.81;nan;100180.84;4929435;29;20053;-64
2022/09/24 08:55:22;;;;;;;3.33;2.58;;;;;;;22.27;nan;100179.16;4921820;29;20042;-64
2022/09/24 08:57:57;;;;;;;5.10;3.50;;;;;;;22.76;nan;100164.47;4936279;29;20051;-64
2022/09/24 09:00:22;;;;;;;4.20;3.08;;;;;;;22.76;nan;100167.19;4920414;29;20568;-63
2022/09/24 09:03:00;;;;;;;5.45;3.78;;;;;;;22.72;nan;100166.03;4926843;29;20032;-64
2022/09/24 09:06:02;;;;;;;4.40;3.30;;;;;;;22.85;nan;100182.72;4926441;28;20058;-64
2022/09/24 09:08:50;;;;;;;5.72;4.05;;;;;;;22.52;nan;100188.00;4926825;29;20048;-64
2022/09/24 09:11:20;;;;;;;5.78;4.93;;;;;;;21.97;nan;100187.38;4905237;28;20379;-63
2022/09/24 09:13:53;;;;;;;5.07;4.55;;;;;;;21.47;nan;100181.63;4927163;28;20111;-64
2022/09/24 09:16:18;;;;;;;6.47;4.70;;;;;;;21.25;nan;100184.00;4926129;28;20130;-64
2022/09/24 09:18:47;;;;;;;7.63;5.03;;;;;;;20.98;nan;100187.91;4925376;28;20040;-63
2022/09/24 09:21:13;;;;;;;4.88;4.10;;;;;;;20.95;nan;100185.69;4928040;29;20036;-63
2022/09/24 09:23:47;;;;;;;5.70;4.50;;;;;;;20.90;nan;100190.09;4931148;28;20062;-63
2022/09/24 09:26:13;;;;;;;8.02;5.47;;;;;;;20.83;nan;100187.50;4928287;29;20036;-63
2022/09/24 09:28:39;;;;;;;7.53;5.55;;;;;;;20.74;nan;100186.19;4932426;28;20046;-64
2022/09/24 09:31:20;;;;;;;8.05;6.25;;;;;;;20.83;nan;100186.69;4927184;29;20098;-63
2022/09/24 09:33:58;;;;;;;5.60;4.80;;;;;;;21.08;nan;100190.03;4929843;28;20035;-64
2022/09/24 09:36:45;;;;;;;6.30;4.85;;;;;;;21.49;nan;100185.72;4925733;29;20043;-64
2022/09/24 09:39:36;;;;;;;6.20;4.97;;;;;;;22.13;nan;100187.72;4932799;28;20069;-63
2022/09/24 09:42:26;;;;;;;8.83;5.63;;;;;;;21.83;nan;100184.13;4919378;29;20440;-64
2022/09/24 09:44:52;;;;;;;7.07;5.72;;;;;;;21.57;nan;100187.25;4929547;29;20067;-64
2022/09/24 09:47:49;;;;;;;7.68;5.82;;;;;;;21.32;nan;100187.41;4921561;29;20493;-63
2022/09/24 09:50:29;;;;;;;7.57;6.45;;;;;;;21.16;nan;100186.19;4924349;28;20392;-64
2022/09/24 09:52:55;;;;;;;6.55;5.53;;;;;;;20.93;nan;100181.59;4931765;29;20050;-63
2022/09/24 09:55:27;;;;;;;5.38;3.70;;;;;;;20.91;nan;100176.44;4931812;29;20043;-63
2022/09/24 09:58:10;;;;;;;6.30;4.60;;;;;;;21.02;nan;100185.56;4923108;28;20048;-63
2022/09/24 10:00:36;;;;;;;8.80;6.47;;;;;;;21.35;nan;100174.31;4928452;28;20046;-64
2022/09/24 10:03:02;;;;;;;6.85;5.65;;;;;;;21.87;nan;100170.19;4929206;29;20044;-63
2022/09/24 10:05:29;;;;;;;6.28;4.70;;;;;;;21.97;nan;100167.69;4926808;29;20059;-63
2022/09/24 10:07:58;;;;;;;8.77;5.22;;;;;;;22.30;nan;100169.78;4919058;29;20039;-63
2022/09/24 10:10:28;;;;;;;7.13;5.68;;;;;;;22.48;nan;100179.59;4920966;29;20520;-64
2022/09/24 10:13:07;;;;;;;10.20;5.10;;;;;;;22.27;nan;100167.59;4932518;29;20086;-64
2022/09/24 10:15:32;;;;;;;6.15;4.80;;;;;;;22.26;nan;100169.47;4921307;29;20131;-64
2022/09/24 10:17:59;;;;;;;8.70;5.45;;;;;;;21.97;nan;100170.41;4934456;29;20043;-64
2022/09/24 10:20:27;;;;;;;7.22;5.40;;;;;;;21.97;nan;100167.69;4918955;29;20036;-64
2022/09/24 10:22:57;;;;;;;7.70;5.18;;;;;;;22.18;nan;100172.47;4931010;28;20048;-64
2022/09/24 10:25:27;;;;;;;5.70;4.78;;;;;;;22.78;nan;100165.06;4925342;29;20032;-64
2022/09/24 10:30:32;;;;;;;6.40;4.38;;;;;;;24.36;nan;100164.88;4922819;29;20036;-64
2022/09/24 10:30:57;;;;;;;5.30;3.88;;;;;;;24.64;nan;100173.03;4926315;28;20107;-64
2022/09/24 10:33:23;;;;;;;6.93;5.03;;;;;;;24.34;nan;100175.09;4922912;28;20508;-64
2022/09/24 10:35:48;;;;;;;6.63;5.55;;;;;;;23.94;nan;100173.50;4928058;28;20107;-63
2022/09/24 10:38:20;;;;;;;6.57;5.55;;;;;;;25.15;nan;100165.44;4917898;29;20304;-65
2022/09/24 10:40:45;;;;;;;;;;;;;;;25.59;nan;100160.66;4941260;28;20043;-63
2022/09/24 10:43:17;;;;;;;6.28;4.32;;;;;;;25.40;nan;100170.25;4926345;28;20264;-68
2022/09/24 10:46:09;;;;;;;5.57;4.30;;;;;;;24.68;nan;100169.56;4930465;28;20040;-67
2022/09/24 10:48:47;;;;;;;6.22;4.57;;;;;;;24.27;nan;100166.38;4919756;29;20044;-65
2022/09/24 10:51:25;;;;;;;5.85;4.60;;;;;;;23.71;nan;100160.16;4930934;28;20040;-68
2022/09/24 10:54:08;;;;;;;6.22;4.18;;;;;;;23.59;nan;100162.13;4914577;29;20370;-67
2022/09/24 10:56:50;;;;;;;7.95;4.93;;;;;;;23.53;nan;100153.16;4921969;28;20048;-67
2022/09/24 10:59:34;;;;;;;6.03;4.38;;;;;;;23.34;nan;100154.47;4926524;29;20042;-67
2022/09/24 11:02:27;;;;;;;5.63;3.65;;;;;;;23.22;nan;100151.84;4916176;29;20561;-67
2022/09/24 11:05:03;;;;;;;7.32;4.05;;;;;;;22.98;nan;100152.00;4925672;29;20172;-66
2022/09/24 11:07:43;;;;;;;6.70;4.18;;;;;;;22.97;nan;100152.19;4926371;28;20036;-65
2022/09/24 11:10:38;;;;;;;5.10;3.58;;;;;;;23.09;nan;100143.00;4915143;29;20280;-66
2022/09/24 11:13:22;;;;;;;6.25;4.40;;;;;;;23.27;nan;100138.44;4929080;29;20036;-66
2022/09/24 11:16:24;;;;;;;6.15;3.83;;;;;;;23.15;nan;100141.22;4923973;29;20050;-66
2022/09/24 11:19:12;;;;;;;6.85;4.60;;;;;;;22.97;nan;100138.72;4928810;29;20095;-66
2022/09/24 11:22:23;;;;;;;4.97;3.75;;;;;;;22.60;nan;100136.44;4922610;29;20032;-66
2022/09/24 11:25:10;;;;;;;4.53;3.33;;;;;;;22.52;nan;100137.63;4920698;28;20357;-66
2022/09/24 11:27:47;;;;;;;4.78;3.55;;;;;;;22.73;nan;100144.22;4926475;29;20039;-66
2022/09/24 11:30:20;;;;;;;5.45;3.55;;;;;;;22.82;nan;100147.34;4918623;29;20090;-66
2022/09/24 11:33:13;;;;;;;4.85;3.40;;;;;;;22.91;nan;100143.22;4931398;29;20047;-66
2022/09/24 11:36:03;;;;;;;4.50;3.00;;;;;;;23.22;nan;100146.47;4927108;29;20040;-67
2022/09/24 11:39:00;;;;;;;5.60;3.47;;;;;;;23.40;nan;100140.00;4921392;28;20528;-67
2022/09/24 11:41:41;;;;;;;4.50;3.33;;;;;;;23.17;nan;100146.34;4912931;29;20416;-66
2022/09/24 11:44:39;;;;;;;3.97;3.00;;;;;;;22.63;nan;100144.84;4925827;28;20075;-66
2022/09/24 11:47:29;;;;;;;5.43;3.13;;;;;;;22.45;nan;100128.88;4914609;29;20036;-66
2022/09/24 11:50:13;;;;;;;6.30;3.10;;;;;;;22.40;nan;100124.19;4919230;29;20040;-66
2022/09/24 11:52:44;;;;;;;5.25;3.67;;;;;;;22.12;nan;100124.97;4923883;29;20103;-66
2022/09/24 11:55:21;;;;;;;;;;;;;;;22.00;nan;100119.59;4915139;29;20059;-66
2022/09/24 11:58:11;;;;;;;3.65;2.80;;;;;;;22.02;nan;100112.13;4924281;28;19922;-66
2022/09/24 12:00:44;;;;;;;5.28;3.70;;;;;;;22.05;nan;100118.91;4930183;29;20039;-66
2022/09/24 12:03:24;;;;;;;5.82;3.67;;;;;;;21.98;nan;100123.59;4932100;29;20098;-66
2022/09/24 12:05:55;;;;;;;3.80;3.38;;;;;;;21.97;nan;100120.06;4930950;29;20050;-66
2022/09/24 12:08:30;;;;;;;4.68;3.30;;;;;;;22.06;nan;100117.81;4931484;28;20293;-66
2022/09/24 12:11:12;;;;;;;3.55;2.72;;;;;;;22.15;nan;100121.78;4923719;29;20131;-65